Terminal Aerodrome Forecast
Issued by NWS Austin/San Antonio, TX

Home | Current Version | Previous Version | Text Only | Print | Product List | Glossary On
Versions: 1 2 3 4 5 6 7 8 9 10 11 12 13 14 15 16 17 18 19 20
000
FTUS44 KEWX 311200 AAA
TAFSAT
TAF AMD
KSAT 311207Z 3112/0118 17006KT P6SM OVC021
     FM311600 18005KT P6SM SCT035 BKN250
     FM312100 03007KT P6SM SCT050 BKN250 PROB30 3122/0102 VRB25KT
      5SM TSRA BKN035CB
     FM010400 02006KT P6SM BKN035=

USA.gov is the U.S. government's official web portal to all federal, state and local government web resources and services.